sensor_id;sensor_type;location;lat;lon;timestamp;P1;durP1;ratioP1;P2;durP2;ratioP2
3795;SDS011;1913;50.660;7.834;2023-08-17T00:00:19;13.90;;;7.07;;
3795;SDS011;1913;50.660;7.834;2023-08-17T00:02:44;18.23;;;7.93;;
3795;SDS011;1913;50.660;7.834;2023-08-17T00:05:10;7.73;;;6.00;;
3795;SDS011;1913;50.660;7.834;2023-08-17T00:07:35;10.17;;;5.80;;
3795;SDS011;1913;50.660;7.834;2023-08-17T00:10:01;8.10;;;5.80;;
3795;SDS011;1913;50.660;7.834;2023-08-17T00:12:27;10.00;;;6.90;;
3795;SDS011;1913;50.660;7.834;2023-08-17T00:14:53;14.93;;;8.20;;
3795;SDS011;1913;50.660;7.834;2023-08-17T00:17:19;7.90;;;6.23;;
3795;SDS011;1913;50.660;7.834;2023-08-17T00:19:45;13.07;;;6.73;;
3795;SDS011;1913;50.660;7.834;2023-08-17T00:22:11;8.40;;;6.20;;
3795;SDS011;1913;50.660;7.834;2023-08-17T00:24:36;9.10;;;7.07;;
3795;SDS011;1913;50.660;7.834;2023-08-17T00:27:02;9.20;;;6.57;;
3795;SDS011;1913;50.660;7.834;2023-08-17T00:29:28;12.10;;;7.60;;
3795;SDS011;1913;50.660;7.834;2023-08-17T00:31:54;9.53;;;6.77;;
3795;SDS011;1913;50.660;7.834;2023-08-17T00:34:19;11.53;;;6.83;;
3795;SDS011;1913;50.660;7.834;2023-08-17T00:36:44;9.83;;;7.27;;
3795;SDS011;1913;50.660;7.834;2023-08-17T00:39:10;13.57;;;8.83;;
3795;SDS011;1913;50.660;7.834;2023-08-17T00:41:35;14.10;;;8.70;;
3795;SDS011;1913;50.660;7.834;2023-08-17T00:44:01;11.30;;;7.20;;
3795;SDS011;1913;50.660;7.834;2023-08-17T00:46:27;16.33;;;9.90;;
3795;SDS011;1913;50.660;7.834;2023-08-17T00:48:53;15.97;;;7.40;;
3795;SDS011;1913;50.660;7.834;2023-08-17T00:51:21;16.20;;;8.23;;
3795;SDS011;1913;50.660;7.834;2023-08-17T00:53:48;14.20;;;8.87;;
3795;SDS011;1913;50.660;7.834;2023-08-17T00:56:19;13.43;;;8.57;;
3795;SDS011;1913;50.660;7.834;2023-08-17T00:58:44;10.90;;;8.13;;
3795;SDS011;1913;50.660;7.834;2023-08-17T01:01:10;8.73;;;6.60;;
3795;SDS011;1913;50.660;7.834;2023-08-17T01:03:35;10.70;;;5.33;;
3795;SDS011;1913;50.660;7.834;2023-08-17T01:06:01;11.90;;;6.47;;
3795;SDS011;1913;50.660;7.834;2023-08-17T01:08:27;6.30;;;4.87;;
3795;SDS011;1913;50.660;7.834;2023-08-17T01:13:49;8.83;;;4.83;;
3795;SDS011;1913;50.660;7.834;2023-08-17T01:16:38;8.67;;;5.67;;
3795;SDS011;1913;50.660;7.834;2023-08-17T01:19:08;7.60;;;4.80;;
3795;SDS011;1913;50.660;7.834;2023-08-17T01:21:41;9.73;;;5.17;;
3795;SDS011;1913;50.660;7.834;2023-08-17T01:24:09;7.17;;;4.70;;
3795;SDS011;1913;50.660;7.834;2023-08-17T01:26:37;7.33;;;5.00;;
3795;SDS011;1913;50.660;7.834;2023-08-17T01:29:02;5.23;;;4.10;;
3795;SDS011;1913;50.660;7.834;2023-08-17T01:31:40;5.40;;;3.97;;
3795;SDS011;1913;50.660;7.834;2023-08-17T01:34:19;4.40;;;4.00;;
3795;SDS011;1913;50.660;7.834;2023-08-17T01:36:58;5.07;;;4.30;;
3795;SDS011;1913;50.660;7.834;2023-08-17T01:39:27;9.97;;;5.13;;
3795;SDS011;1913;50.660;7.834;2023-08-17T01:42:00;9.23;;;5.27;;
3795;SDS011;1913;50.660;7.834;2023-08-17T01:44:26;10.00;;;5.67;;
3795;SDS011;1913;50.660;7.834;2023-08-17T01:46:52;10.10;;;5.50;;
3795;SDS011;1913;50.660;7.834;2023-08-17T01:49:18;10.43;;;6.77;;
3795;SDS011;1913;50.660;7.834;2023-08-17T01:51:43;8.63;;;5.63;;
3795;SDS011;1913;50.660;7.834;2023-08-17T01:54:09;10.70;;;5.07;;
3795;SDS011;1913;50.660;7.834;2023-08-17T01:56:34;6.93;;;5.23;;
3795;SDS011;1913;50.660;7.834;2023-08-17T01:58:59;7.90;;;5.17;;
3795;SDS011;1913;50.660;7.834;2023-08-17T02:01:25;9.70;;;5.20;;
3795;SDS011;1913;50.660;7.834;2023-08-17T02:03:51;6.87;;;5.17;;
3795;SDS011;1913;50.660;7.834;2023-08-17T02:06:16;14.70;;;8.23;;
3795;SDS011;1913;50.660;7.834;2023-08-17T02:08:41;10.83;;;7.10;;
3795;SDS011;1913;50.660;7.834;2023-08-17T02:11:07;15.00;;;6.50;;
3795;SDS011;1913;50.660;7.834;2023-08-17T02:13:34;15.50;;;7.13;;
3795;SDS011;1913;50.660;7.834;2023-08-17T02:16:01;17.73;;;6.60;;
3795;SDS011;1913;50.660;7.834;2023-08-17T02:18:27;11.40;;;6.30;;
3795;SDS011;1913;50.660;7.834;2023-08-17T02:20:56;11.20;;;7.53;;
3795;SDS011;1913;50.660;7.834;2023-08-17T02:23:21;8.70;;;5.73;;
3795;SDS011;1913;50.660;7.834;2023-08-17T02:25:46;14.53;;;7.30;;
3795;SDS011;1913;50.660;7.834;2023-08-17T02:28:12;10.90;;;6.67;;
3795;SDS011;1913;50.660;7.834;2023-08-17T02:30:38;18.03;;;8.03;;
3795;SDS011;1913;50.660;7.834;2023-08-17T02:33:03;12.10;;;6.53;;
3795;SDS011;1913;50.660;7.834;2023-08-17T02:35:29;19.13;;;7.23;;
3795;SDS011;1913;50.660;7.834;2023-08-17T02:37:55;25.50;;;7.70;;
3795;SDS011;1913;50.660;7.834;2023-08-17T02:40:20;15.00;;;7.70;;
3795;SDS011;1913;50.660;7.834;2023-08-17T02:42:46;10.00;;;6.10;;
3795;SDS011;1913;50.660;7.834;2023-08-17T02:45:11;12.27;;;6.50;;
3795;SDS011;1913;50.660;7.834;2023-08-17T02:47:37;11.90;;;5.00;;
3795;SDS011;1913;50.660;7.834;2023-08-17T02:50:02;23.50;;;6.60;;
3795;SDS011;1913;50.660;7.834;2023-08-17T02:52:28;10.33;;;6.07;;
3795;SDS011;1913;50.660;7.834;2023-08-17T02:54:53;10.70;;;6.40;;
3795;SDS011;1913;50.660;7.834;2023-08-17T02:57:19;5.13;;;4.30;;
3795;SDS011;1913;50.660;7.834;2023-08-17T02:59:45;6.30;;;4.60;;
3795;SDS011;1913;50.660;7.834;2023-08-17T03:02:10;24.83;;;9.10;;
3795;SDS011;1913;50.660;7.834;2023-08-17T03:04:36;26.03;;;8.70;;
3795;SDS011;1913;50.660;7.834;2023-08-17T03:07:01;20.07;;;6.57;;
3795;SDS011;1913;50.660;7.834;2023-08-17T03:09:27;13.37;;;6.67;;
3795;SDS011;1913;50.660;7.834;2023-08-17T03:11:52;68.83;;;10.43;;
3795;SDS011;1913;50.660;7.834;2023-08-17T03:14:18;9.53;;;5.13;;
3795;SDS011;1913;50.660;7.834;2023-08-17T03:16:43;11.20;;;5.27;;
3795;SDS011;1913;50.660;7.834;2023-08-17T03:19:09;17.10;;;5.00;;
3795;SDS011;1913;50.660;7.834;2023-08-17T03:21:36;23.17;;;6.60;;
3795;SDS011;1913;50.660;7.834;2023-08-17T03:24:02;44.63;;;9.00;;
3795;SDS011;1913;50.660;7.834;2023-08-17T03:26:28;22.67;;;7.23;;
3795;SDS011;1913;50.660;7.834;2023-08-17T03:28:53;80.70;;;10.00;;
3795;SDS011;1913;50.660;7.834;2023-08-17T03:31:22;21.23;;;5.40;;
3795;SDS011;1913;50.660;7.834;2023-08-17T03:33:47;49.63;;;7.87;;
3795;SDS011;1913;50.660;7.834;2023-08-17T03:36:13;23.90;;;6.43;;
3795;SDS011;1913;50.660;7.834;2023-08-17T03:38:39;45.30;;;7.00;;
3795;SDS011;1913;50.660;7.834;2023-08-17T03:41:05;54.90;;;7.30;;
3795;SDS011;1913;50.660;7.834;2023-08-17T03:43:31;52.60;;;8.97;;
3795;SDS011;1913;50.660;7.834;2023-08-17T03:45:56;184.03;;;14.57;;
3795;SDS011;1913;50.660;7.834;2023-08-17T03:48:21;100.07;;;12.17;;
3795;SDS011;1913;50.660;7.834;2023-08-17T03:50:50;34.97;;;9.17;;
3795;SDS011;1913;50.660;7.834;2023-08-17T03:53:17;47.27;;;8.87;;
3795;SDS011;1913;50.660;7.834;2023-08-17T03:55:49;92.10;;;10.57;;
3795;SDS011;1913;50.660;7.834;2023-08-17T03:58:15;117.53;;;13.03;;
3795;SDS011;1913;50.660;7.834;2023-08-17T04:00:41;79.83;;;10.40;;
3795;SDS011;1913;50.660;7.834;2023-08-17T04:03:08;97.23;;;11.77;;
3795;SDS011;1913;50.660;7.834;2023-08-17T04:05:33;55.40;;;10.63;;
3795;SDS011;1913;50.660;7.834;2023-08-17T04:08:00;41.90;;;7.87;;
3795;SDS011;1913;50.660;7.834;2023-08-17T04:10:27;28.70;;;7.90;;
3795;SDS011;1913;50.660;7.834;2023-08-17T04:12:53;21.77;;;6.40;;
3795;SDS011;1913;50.660;7.834;2023-08-17T04:15:19;55.60;;;9.20;;
3795;SDS011;1913;50.660;7.834;2023-08-17T04:17:44;95.90;;;11.33;;
3795;SDS011;1913;50.660;7.834;2023-08-17T04:20:09;110.77;;;10.67;;
3795;SDS011;1913;50.660;7.834;2023-08-17T04:22:36;14.83;;;6.40;;
3795;SDS011;1913;50.660;7.834;2023-08-17T04:25:01;103.20;;;11.10;;
3795;SDS011;1913;50.660;7.834;2023-08-17T04:27:27;16.23;;;7.03;;
3795;SDS011;1913;50.660;7.834;2023-08-17T04:29:52;50.07;;;9.30;;
3795;SDS011;1913;50.660;7.834;2023-08-17T04:32:18;40.33;;;8.53;;
3795;SDS011;1913;50.660;7.834;2023-08-17T04:34:44;109.13;;;10.83;;
3795;SDS011;1913;50.660;7.834;2023-08-17T04:37:10;23.40;;;7.13;;
3795;SDS011;1913;50.660;7.834;2023-08-17T04:39:36;17.80;;;6.90;;
3795;SDS011;1913;50.660;7.834;2023-08-17T04:42:02;43.47;;;9.47;;
3795;SDS011;1913;50.660;7.834;2023-08-17T04:44:28;16.53;;;6.67;;
3795;SDS011;1913;50.660;7.834;2023-08-17T04:46:54;60.77;;;8.20;;
3795;SDS011;1913;50.660;7.834;2023-08-17T04:49:19;38.57;;;7.90;;
3795;SDS011;1913;50.660;7.834;2023-08-17T04:51:44;104.97;;;10.60;;
3795;SDS011;1913;50.660;7.834;2023-08-17T04:54:10;41.10;;;7.23;;
3795;SDS011;1913;50.660;7.834;2023-08-17T04:56:35;49.47;;;7.10;;
3795;SDS011;1913;50.660;7.834;2023-08-17T04:59:00;123.77;;;10.03;;
3795;SDS011;1913;50.660;7.834;2023-08-17T05:01:26;44.27;;;7.67;;
3795;SDS011;1913;50.660;7.834;2023-08-17T05:03:51;122.60;;;12.40;;
3795;SDS011;1913;50.660;7.834;2023-08-17T05:06:17;68.27;;;10.17;;
3795;SDS011;1913;50.660;7.834;2023-08-17T05:08:42;52.43;;;8.03;;
3795;SDS011;1913;50.660;7.834;2023-08-17T05:11:07;65.63;;;8.90;;
3795;SDS011;1913;50.660;7.834;2023-08-17T05:13:33;9.17;;;6.87;;
3795;SDS011;1913;50.660;7.834;2023-08-17T05:15:59;20.50;;;8.97;;
3795;SDS011;1913;50.660;7.834;2023-08-17T05:18:24;23.80;;;8.13;;
3795;SDS011;1913;50.660;7.834;2023-08-17T05:20:50;18.07;;;7.07;;
3795;SDS011;1913;50.660;7.834;2023-08-17T05:23:15;89.80;;;11.43;;
3795;SDS011;1913;50.660;7.834;2023-08-17T05:25:40;109.17;;;14.43;;
3795;SDS011;1913;50.660;7.834;2023-08-17T05:28:06;11.90;;;8.37;;
3795;SDS011;1913;50.660;7.834;2023-08-17T05:30:32;15.10;;;8.60;;
3795;SDS011;1913;50.660;7.834;2023-08-17T05:32:58;70.50;;;8.10;;
3795;SDS011;1913;50.660;7.834;2023-08-17T05:35:24;45.50;;;6.63;;
3795;SDS011;1913;50.660;7.834;2023-08-17T05:37:50;48.13;;;7.70;;
3795;SDS011;1913;50.660;7.834;2023-08-17T05:40:16;38.13;;;6.80;;
3795;SDS011;1913;50.660;7.834;2023-08-17T05:42:41;22.87;;;7.40;;
3795;SDS011;1913;50.660;7.834;2023-08-17T05:45:07;34.33;;;7.63;;
3795;SDS011;1913;50.660;7.834;2023-08-17T05:47:33;18.60;;;6.00;;
3795;SDS011;1913;50.660;7.834;2023-08-17T05:49:58;128.60;;;10.80;;
3795;SDS011;1913;50.660;7.834;2023-08-17T05:52:23;73.27;;;7.93;;
3795;SDS011;1913;50.660;7.834;2023-08-17T05:54:49;47.87;;;8.10;;
3795;SDS011;1913;50.660;7.834;2023-08-17T05:57:14;37.93;;;7.63;;
3795;SDS011;1913;50.660;7.834;2023-08-17T05:59:40;19.17;;;7.43;;
3795;SDS011;1913;50.660;7.834;2023-08-17T06:02:05;30.77;;;7.73;;
3795;SDS011;1913;50.660;7.834;2023-08-17T06:04:30;50.97;;;7.83;;
3795;SDS011;1913;50.660;7.834;2023-08-17T06:06:56;60.90;;;7.97;;
3795;SDS011;1913;50.660;7.834;2023-08-17T06:09:21;31.60;;;7.60;;
3795;SDS011;1913;50.660;7.834;2023-08-17T06:11:47;11.67;;;6.70;;
3795;SDS011;1913;50.660;7.834;2023-08-17T06:14:12;9.77;;;6.27;;
3795;SDS011;1913;50.660;7.834;2023-08-17T06:16:37;8.83;;;5.90;;
3795;SDS011;1913;50.660;7.834;2023-08-17T06:19:03;9.73;;;5.70;;
3795;SDS011;1913;50.660;7.834;2023-08-17T06:21:28;7.30;;;5.60;;
3795;SDS011;1913;50.660;7.834;2023-08-17T06:23:54;12.23;;;5.63;;
3795;SDS011;1913;50.660;7.834;2023-08-17T06:26:19;10.97;;;6.17;;
3795;SDS011;1913;50.660;7.834;2023-08-17T06:28:45;8.67;;;5.90;;
3795;SDS011;1913;50.660;7.834;2023-08-17T06:31:10;9.40;;;5.70;;
3795;SDS011;1913;50.660;7.834;2023-08-17T06:33:35;9.50;;;5.63;;
3795;SDS011;1913;50.660;7.834;2023-08-17T06:36:01;9.57;;;6.30;;
3795;SDS011;1913;50.660;7.834;2023-08-17T06:38:27;10.40;;;6.63;;
3795;SDS011;1913;50.660;7.834;2023-08-17T06:40:52;10.50;;;6.83;;
3795;SDS011;1913;50.660;7.834;2023-08-17T06:43:18;10.03;;;6.00;;
3795;SDS011;1913;50.660;7.834;2023-08-17T06:45:43;8.87;;;5.60;;
3795;SDS011;1913;50.660;7.834;2023-08-17T06:48:09;5.10;;;4.60;;
3795;SDS011;1913;50.660;7.834;2023-08-17T06:50:34;7.43;;;5.23;;
3795;SDS011;1913;50.660;7.834;2023-08-17T06:53:00;6.67;;;5.13;;
3795;SDS011;1913;50.660;7.834;2023-08-17T06:55:27;6.80;;;4.73;;
3795;SDS011;1913;50.660;7.834;2023-08-17T06:57:52;6.83;;;5.30;;
3795;SDS011;1913;50.660;7.834;2023-08-17T07:00:18;8.70;;;5.60;;
3795;SDS011;1913;50.660;7.834;2023-08-17T07:02:47;6.90;;;5.23;;
3795;SDS011;1913;50.660;7.834;2023-08-17T07:05:16;9.43;;;5.20;;
3795;SDS011;1913;50.660;7.834;2023-08-17T07:07:42;4.90;;;3.90;;
3795;SDS011;1913;50.660;7.834;2023-08-17T07:10:08;6.37;;;4.77;;
3795;SDS011;1913;50.660;7.834;2023-08-17T07:12:35;5.20;;;4.10;;
3795;SDS011;1913;50.660;7.834;2023-08-17T07:15:01;5.83;;;4.23;;
3795;SDS011;1913;50.660;7.834;2023-08-17T07:17:28;6.77;;;4.17;;
3795;SDS011;1913;50.660;7.834;2023-08-17T07:19:53;4.37;;;3.90;;
3795;SDS011;1913;50.660;7.834;2023-08-17T07:22:19;3.53;;;3.23;;
3795;SDS011;1913;50.660;7.834;2023-08-17T07:24:44;6.60;;;3.20;;
3795;SDS011;1913;50.660;7.834;2023-08-17T07:27:09;3.60;;;3.20;;
3795;SDS011;1913;50.660;7.834;2023-08-17T07:29:35;4.97;;;3.40;;
3795;SDS011;1913;50.660;7.834;2023-08-17T07:32:00;5.47;;;3.90;;
3795;SDS011;1913;50.660;7.834;2023-08-17T07:34:27;6.70;;;4.87;;
3795;SDS011;1913;50.660;7.834;2023-08-17T07:36:52;6.83;;;5.87;;
3795;SDS011;1913;50.660;7.834;2023-08-17T07:39:18;8.53;;;6.30;;
3795;SDS011;1913;50.660;7.834;2023-08-17T07:41:43;6.93;;;5.40;;
3795;SDS011;1913;50.660;7.834;2023-08-17T07:44:09;7.77;;;4.97;;
3795;SDS011;1913;50.660;7.834;2023-08-17T07:46:34;7.93;;;4.10;;
3795;SDS011;1913;50.660;7.834;2023-08-17T07:49:00;5.20;;;3.87;;
3795;SDS011;1913;50.660;7.834;2023-08-17T07:51:25;8.37;;;4.30;;
3795;SDS011;1913;50.660;7.834;2023-08-17T07:53:51;5.23;;;4.00;;
3795;SDS011;1913;50.660;7.834;2023-08-17T07:56:16;6.67;;;4.00;;
3795;SDS011;1913;50.660;7.834;2023-08-17T07:58:42;3.23;;;2.93;;
3795;SDS011;1913;50.660;7.834;2023-08-17T08:01:07;4.57;;;3.33;;
3795;SDS011;1913;50.660;7.834;2023-08-17T08:03:32;4.30;;;3.50;;
3795;SDS011;1913;50.660;7.834;2023-08-17T08:05:58;4.03;;;3.50;;
3795;SDS011;1913;50.660;7.834;2023-08-17T08:08:23;5.40;;;4.20;;
3795;SDS011;1913;50.660;7.834;2023-08-17T08:10:49;4.53;;;4.13;;
3795;SDS011;1913;50.660;7.834;2023-08-17T08:13:14;4.80;;;4.23;;
3795;SDS011;1913;50.660;7.834;2023-08-17T08:15:39;5.43;;;4.00;;
3795;SDS011;1913;50.660;7.834;2023-08-17T08:18:05;7.10;;;4.13;;
3795;SDS011;1913;50.660;7.834;2023-08-17T08:20:31;4.67;;;4.27;;
3795;SDS011;1913;50.660;7.834;2023-08-17T08:22:56;5.53;;;4.70;;
3795;SDS011;1913;50.660;7.834;2023-08-17T08:25:21;6.07;;;4.57;;
3795;SDS011;1913;50.660;7.834;2023-08-17T08:27:47;5.67;;;4.27;;
3795;SDS011;1913;50.660;7.834;2023-08-17T08:30:12;6.30;;;4.50;;
3795;SDS011;1913;50.660;7.834;2023-08-17T08:32:37;9.30;;;4.80;;
3795;SDS011;1913;50.660;7.834;2023-08-17T08:35:03;5.20;;;4.70;;
3795;SDS011;1913;50.660;7.834;2023-08-17T08:37:29;5.47;;;4.87;;
3795;SDS011;1913;50.660;7.834;2023-08-17T08:39:54;4.50;;;4.10;;
3795;SDS011;1913;50.660;7.834;2023-08-17T08:42:21;6.03;;;5.07;;
3795;SDS011;1913;50.660;7.834;2023-08-17T08:44:47;6.10;;;5.50;;
3795;SDS011;1913;50.660;7.834;2023-08-17T08:47:14;9.10;;;4.57;;
3795;SDS011;1913;50.660;7.834;2023-08-17T08:50:03;6.97;;;5.93;;
3795;SDS011;1913;50.660;7.834;2023-08-17T08:52:35;8.07;;;5.27;;
3795;SDS011;1913;50.660;7.834;2023-08-17T08:55:10;6.83;;;5.40;;
3795;SDS011;1913;50.660;7.834;2023-08-17T08:57:37;5.23;;;4.73;;
3795;SDS011;1913;50.660;7.834;2023-08-17T09:00:05;4.90;;;4.50;;
3795;SDS011;1913;50.660;7.834;2023-08-17T09:02:32;7.23;;;5.17;;
3795;SDS011;1913;50.660;7.834;2023-08-17T09:04:59;5.10;;;4.60;;
3795;SDS011;1913;50.660;7.834;2023-08-17T09:07:26;5.57;;;4.37;;
3795;SDS011;1913;50.660;7.834;2023-08-17T09:09:54;5.30;;;4.20;;
3795;SDS011;1913;50.660;7.834;2023-08-17T09:12:21;6.10;;;4.77;;
3795;SDS011;1913;50.660;7.834;2023-08-17T09:14:47;6.30;;;4.87;;
3795;SDS011;1913;50.660;7.834;2023-08-17T09:17:12;4.40;;;4.00;;
3795;SDS011;1913;50.660;7.834;2023-08-17T09:19:38;4.60;;;4.20;;
3795;SDS011;1913;50.660;7.834;2023-08-17T09:22:03;6.00;;;4.27;;
3795;SDS011;1913;50.660;7.834;2023-08-17T09:24:35;4.17;;;3.77;;
3795;SDS011;1913;50.660;7.834;2023-08-17T09:27:04;3.87;;;3.40;;
3795;SDS011;1913;50.660;7.834;2023-08-17T09:29:30;4.03;;;3.63;;
3795;SDS011;1913;50.660;7.834;2023-08-17T09:32:04;3.70;;;2.93;;
3795;SDS011;1913;50.660;7.834;2023-08-17T09:34:32;4.47;;;3.47;;
3795;SDS011;1913;50.660;7.834;2023-08-17T09:37:04;4.37;;;3.40;;
3795;SDS011;1913;50.660;7.834;2023-08-17T09:39:30;3.40;;;3.10;;
3795;SDS011;1913;50.660;7.834;2023-08-17T09:41:56;7.70;;;3.70;;
3795;SDS011;1913;50.660;7.834;2023-08-17T09:44:22;4.67;;;3.03;;
3795;SDS011;1913;50.660;7.834;2023-08-17T09:46:47;4.93;;;3.83;;
3795;SDS011;1913;50.660;7.834;2023-08-17T09:49:12;4.20;;;3.80;;
3795;SDS011;1913;50.660;7.834;2023-08-17T09:51:41;7.70;;;3.40;;
3795;SDS011;1913;50.660;7.834;2023-08-17T09:54:07;4.03;;;3.20;;
3795;SDS011;1913;50.660;7.834;2023-08-17T09:56:32;2.90;;;2.60;;
3795;SDS011;1913;50.660;7.834;2023-08-17T09:58:59;4.27;;;3.03;;
3795;SDS011;1913;50.660;7.834;2023-08-17T10:01:24;2.70;;;2.50;;
3795;SDS011;1913;50.660;7.834;2023-08-17T10:03:53;5.67;;;3.00;;
3795;SDS011;1913;50.660;7.834;2023-08-17T10:06:22;3.47;;;3.00;;
3795;SDS011;1913;50.660;7.834;2023-08-17T10:08:50;3.60;;;3.30;;
3795;SDS011;1913;50.660;7.834;2023-08-17T10:11:19;3.60;;;2.90;;
3795;SDS011;1913;50.660;7.834;2023-08-17T10:14:02;3.20;;;2.90;;
3795;SDS011;1913;50.660;7.834;2023-08-17T10:16:49;4.03;;;3.00;;
3795;SDS011;1913;50.660;7.834;2023-08-17T10:22:12;3.30;;;3.10;;
3795;SDS011;1913;50.660;7.834;2023-08-17T10:24:42;4.10;;;2.53;;
3795;SDS011;1913;50.660;7.834;2023-08-17T10:27:08;3.20;;;2.90;;
3795;SDS011;1913;50.660;7.834;2023-08-17T10:29:35;3.67;;;2.77;;
3795;SDS011;1913;50.660;7.834;2023-08-17T10:32:01;4.83;;;2.80;;
3795;SDS011;1913;50.660;7.834;2023-08-17T10:34:27;3.50;;;3.20;;
3795;SDS011;1913;50.660;7.834;2023-08-17T10:36:53;3.10;;;2.90;;
3795;SDS011;1913;50.660;7.834;2023-08-17T10:39:23;2.83;;;2.63;;
3795;SDS011;1913;50.660;7.834;2023-08-17T10:41:51;3.23;;;2.93;;
3795;SDS011;1913;50.660;7.834;2023-08-17T10:44:17;3.00;;;2.60;;
3795;SDS011;1913;50.660;7.834;2023-08-17T10:47:18;2.70;;;2.50;;
3795;SDS011;1913;50.660;7.834;2023-08-17T10:52:26;5.93;;;2.60;;
3795;SDS011;1913;50.660;7.834;2023-08-17T10:54:56;3.00;;;2.80;;
3795;SDS011;1913;50.660;7.834;2023-08-17T10:57:24;3.30;;;2.70;;
3795;SDS011;1913;50.660;7.834;2023-08-17T11:02:40;5.50;;;3.10;;
3795;SDS011;1913;50.660;7.834;2023-08-17T11:05:09;2.90;;;2.70;;
3795;SDS011;1913;50.660;7.834;2023-08-17T11:07:41;3.70;;;2.83;;
3795;SDS011;1913;50.660;7.834;2023-08-17T11:12:45;3.00;;;2.40;;
3795;SDS011;1913;50.660;7.834;2023-08-17T11:15:11;2.57;;;2.37;;
3795;SDS011;1913;50.660;7.834;2023-08-17T11:17:36;5.80;;;2.00;;
3795;SDS011;1913;50.660;7.834;2023-08-17T11:20:03;2.70;;;2.50;;
3795;SDS011;1913;50.660;7.834;2023-08-17T11:22:29;2.60;;;2.40;;
3795;SDS011;1913;50.660;7.834;2023-08-17T11:24:55;2.67;;;2.47;;
3795;SDS011;1913;50.660;7.834;2023-08-17T11:27:20;2.10;;;2.00;;
3795;SDS011;1913;50.660;7.834;2023-08-17T11:29:46;2.73;;;2.50;;
3795;SDS011;1913;50.660;7.834;2023-08-17T11:32:12;5.03;;;2.40;;
3795;SDS011;1913;50.660;7.834;2023-08-17T11:34:37;3.30;;;2.40;;
3795;SDS011;1913;50.660;7.834;2023-08-17T11:37:03;2.47;;;2.27;;
3795;SDS011;1913;50.660;7.834;2023-08-17T11:39:32;2.50;;;2.30;;
3795;SDS011;1913;50.660;7.834;2023-08-17T11:41:58;2.67;;;2.47;;
3795;SDS011;1913;50.660;7.834;2023-08-17T11:44:24;2.57;;;2.37;;
3795;SDS011;1913;50.660;7.834;2023-08-17T11:46:50;6.90;;;2.53;;
3795;SDS011;1913;50.660;7.834;2023-08-17T11:49:16;3.63;;;2.20;;
3795;SDS011;1913;50.660;7.834;2023-08-17T11:51:42;2.53;;;2.33;;
3795;SDS011;1913;50.660;7.834;2023-08-17T11:54:08;2.47;;;2.27;;
3795;SDS011;1913;50.660;7.834;2023-08-17T11:56:33;3.77;;;2.50;;
3795;SDS011;1913;50.660;7.834;2023-08-17T11:58:59;2.83;;;2.47;;
3795;SDS011;1913;50.660;7.834;2023-08-17T12:01:33;4.63;;;2.30;;
3795;SDS011;1913;50.660;7.834;2023-08-17T12:04:00;4.27;;;2.50;;
3795;SDS011;1913;50.660;7.834;2023-08-17T12:06:25;2.57;;;2.37;;
3795;SDS011;1913;50.660;7.834;2023-08-17T12:08:51;2.30;;;2.20;;
3795;SDS011;1913;50.660;7.834;2023-08-17T12:11:17;2.10;;;2.00;;
3795;SDS011;1913;50.660;7.834;2023-08-17T12:13:49;3.77;;;2.27;;
3795;SDS011;1913;50.660;7.834;2023-08-17T12:16:16;2.60;;;2.40;;
3795;SDS011;1913;50.660;7.834;2023-08-17T12:18:51;2.30;;;2.10;;
3795;SDS011;1913;50.660;7.834;2023-08-17T12:21:21;2.90;;;2.50;;
3795;SDS011;1913;50.660;7.834;2023-08-17T12:23:49;3.30;;;2.30;;
3795;SDS011;1913;50.660;7.834;2023-08-17T12:26:18;2.33;;;2.20;;
3795;SDS011;1913;50.660;7.834;2023-08-17T12:28:44;2.50;;;2.30;;
3795;SDS011;1913;50.660;7.834;2023-08-17T12:31:10;2.80;;;2.60;;
3795;SDS011;1913;50.660;7.834;2023-08-17T12:33:35;2.53;;;2.33;;
3795;SDS011;1913;50.660;7.834;2023-08-17T12:36:01;3.70;;;2.80;;
3795;SDS011;1913;50.660;7.834;2023-08-17T12:38:26;3.07;;;2.80;;
3795;SDS011;1913;50.660;7.834;2023-08-17T12:40:52;4.30;;;3.20;;
3795;SDS011;1913;50.660;7.834;2023-08-17T12:43:18;3.27;;;2.97;;
3795;SDS011;1913;50.660;7.834;2023-08-17T12:45:43;3.63;;;3.07;;
3795;SDS011;1913;50.660;7.834;2023-08-17T12:48:09;3.33;;;3.03;;
3795;SDS011;1913;50.660;7.834;2023-08-17T12:50:34;3.33;;;3.03;;
3795;SDS011;1913;50.660;7.834;2023-08-17T12:53:00;4.63;;;2.80;;
3795;SDS011;1913;50.660;7.834;2023-08-17T12:55:25;3.80;;;3.50;;
3795;SDS011;1913;50.660;7.834;2023-08-17T12:57:50;3.07;;;2.77;;
3795;SDS011;1913;50.660;7.834;2023-08-17T13:00:16;3.80;;;3.30;;
3795;SDS011;1913;50.660;7.834;2023-08-17T13:02:41;5.00;;;3.40;;
3795;SDS011;1913;50.660;7.834;2023-08-17T13:05:07;5.13;;;3.17;;
3795;SDS011;1913;50.660;7.834;2023-08-17T13:07:32;3.50;;;3.20;;
3795;SDS011;1913;50.660;7.834;2023-08-17T13:09:58;3.97;;;3.00;;
3795;SDS011;1913;50.660;7.834;2023-08-17T13:12:23;4.90;;;3.30;;
3795;SDS011;1913;50.660;7.834;2023-08-17T13:14:49;3.20;;;2.37;;
3795;SDS011;1913;50.660;7.834;2023-08-17T13:17:14;3.43;;;3.13;;
3795;SDS011;1913;50.660;7.834;2023-08-17T13:19:41;7.70;;;3.17;;
3795;SDS011;1913;50.660;7.834;2023-08-17T13:22:07;3.33;;;3.03;;
3795;SDS011;1913;50.660;7.834;2023-08-17T13:24:33;4.50;;;3.50;;
3795;SDS011;1913;50.660;7.834;2023-08-17T13:26:58;3.33;;;3.03;;
3795;SDS011;1913;50.660;7.834;2023-08-17T13:29:24;2.70;;;2.50;;
3795;SDS011;1913;50.660;7.834;2023-08-17T13:31:49;7.23;;;3.20;;
3795;SDS011;1913;50.660;7.834;2023-08-17T13:34:15;2.83;;;2.63;;
3795;SDS011;1913;50.660;7.834;2023-08-17T13:36:40;7.57;;;3.30;;
3795;SDS011;1913;50.660;7.834;2023-08-17T13:39:06;5.97;;;3.10;;
3795;SDS011;1913;50.660;7.834;2023-08-17T13:41:31;2.80;;;2.60;;
3795;SDS011;1913;50.660;7.834;2023-08-17T13:43:57;3.10;;;2.90;;
3795;SDS011;1913;50.660;7.834;2023-08-17T13:46:22;3.87;;;2.80;;
3795;SDS011;1913;50.660;7.834;2023-08-17T13:48:48;3.30;;;2.70;;
3795;SDS011;1913;50.660;7.834;2023-08-17T13:51:13;2.87;;;2.67;;
3795;SDS011;1913;50.660;7.834;2023-08-17T13:53:39;3.00;;;2.80;;
3795;SDS011;1913;50.660;7.834;2023-08-17T13:56:05;3.27;;;2.70;;
3795;SDS011;1913;50.660;7.834;2023-08-17T13:58:30;3.10;;;2.80;;
3795;SDS011;1913;50.660;7.834;2023-08-17T14:00:55;4.60;;;2.90;;
3795;SDS011;1913;50.660;7.834;2023-08-17T14:03:21;2.97;;;2.77;;
3795;SDS011;1913;50.660;7.834;2023-08-17T14:05:46;3.00;;;2.77;;
3795;SDS011;1913;50.660;7.834;2023-08-17T14:08:11;3.50;;;2.80;;
3795;SDS011;1913;50.660;7.834;2023-08-17T14:10:37;3.97;;;3.67;;
3795;SDS011;1913;50.660;7.834;2023-08-17T14:13:03;5.60;;;2.97;;
3795;SDS011;1913;50.660;7.834;2023-08-17T14:15:29;4.53;;;3.03;;
3795;SDS011;1913;50.660;7.834;2023-08-17T14:17:54;2.87;;;2.67;;
3795;SDS011;1913;50.660;7.834;2023-08-17T14:20:19;2.83;;;2.63;;
3795;SDS011;1913;50.660;7.834;2023-08-17T14:22:45;4.07;;;2.90;;
3795;SDS011;1913;50.660;7.834;2023-08-17T14:25:10;2.90;;;2.70;;
3795;SDS011;1913;50.660;7.834;2023-08-17T14:27:36;2.50;;;2.30;;
3795;SDS011;1913;50.660;7.834;2023-08-17T14:30:01;3.63;;;2.50;;
3795;SDS011;1913;50.660;7.834;2023-08-17T14:32:28;2.83;;;2.60;;
3795;SDS011;1913;50.660;7.834;2023-08-17T14:34:54;3.50;;;2.37;;
3795;SDS011;1913;50.660;7.834;2023-08-17T14:37:19;2.97;;;2.67;;
3795;SDS011;1913;50.660;7.834;2023-08-17T14:39:45;2.67;;;2.47;;
3795;SDS011;1913;50.660;7.834;2023-08-17T14:42:11;4.40;;;2.70;;
3795;SDS011;1913;50.660;7.834;2023-08-17T14:44:37;4.17;;;2.60;;
3795;SDS011;1913;50.660;7.834;2023-08-17T14:47:02;3.90;;;2.80;;
3795;SDS011;1913;50.660;7.834;2023-08-17T14:49:28;5.30;;;2.70;;
3795;SDS011;1913;50.660;7.834;2023-08-17T14:51:54;4.30;;;2.57;;
3795;SDS011;1913;50.660;7.834;2023-08-17T14:54:19;2.70;;;2.50;;
3795;SDS011;1913;50.660;7.834;2023-08-17T14:56:45;3.10;;;2.80;;
3795;SDS011;1913;50.660;7.834;2023-08-17T14:59:10;2.77;;;2.57;;
3795;SDS011;1913;50.660;7.834;2023-08-17T15:01:35;2.60;;;2.30;;
3795;SDS011;1913;50.660;7.834;2023-08-17T15:04:01;3.90;;;2.53;;
3795;SDS011;1913;50.660;7.834;2023-08-17T15:06:26;3.87;;;2.40;;
3795;SDS011;1913;50.660;7.834;2023-08-17T15:08:52;2.73;;;2.50;;
3795;SDS011;1913;50.660;7.834;2023-08-17T15:11:18;3.97;;;2.67;;
3795;SDS011;1913;50.660;7.834;2023-08-17T15:13:43;3.27;;;2.77;;
3795;SDS011;1913;50.660;7.834;2023-08-17T15:16:09;2.67;;;2.47;;
3795;SDS011;1913;50.660;7.834;2023-08-17T15:18:35;3.40;;;2.90;;